createdAt,value
2019-02-04T00:02:11.109Z,24.02
2019-02-04T00:04:40.667Z,29.63
2019-02-04T00:07:10.742Z,24.12
2019-02-04T00:09:39.682Z,24.20
2019-02-04T00:12:09.249Z,21.33
2019-02-04T00:14:39.553Z,27.58
2019-02-04T00:17:08.773Z,29.87
2019-02-04T00:19:37.977Z,17.62
2019-02-04T00:22:07.353Z,36.17
2019-02-04T00:24:36.178Z,41.18
2019-02-04T00:27:05.338Z,29.87
2019-02-04T00:29:34.741Z,51.90
2019-02-04T00:32:04.493Z,41.35
2019-02-04T00:34:34.239Z,41.70
2019-02-04T00:37:05.996Z,26.52
2019-02-04T00:39:35.677Z,27.70
2019-02-04T00:42:07.059Z,30.23
2019-02-04T00:44:36.072Z,31.30
2019-02-04T00:47:04.946Z,23.75
2019-02-04T00:49:35.079Z,24.20
2019-02-04T00:52:05.893Z,34.25
2019-02-04T00:54:36.724Z,27.17
2019-02-04T00:57:07.333Z,22.13
2019-02-04T00:59:44.908Z,27.90
2019-02-04T01:02:56.572Z,30.97
2019-02-04T01:05:25.977Z,21.75
2019-02-04T01:07:57.441Z,39.73
2019-02-04T01:10:29.479Z,26.25
2019-02-04T01:12:58.871Z,39.48
2019-02-04T01:15:41.482Z,30.00
2019-02-04T01:18:11.826Z,28.40
2019-02-04T01:20:41.667Z,32.70
2019-02-04T01:23:10.587Z,42.08
2019-02-04T01:25:39.780Z,37.93
2019-02-04T01:28:09.062Z,51.15
2019-02-04T01:30:37.915Z,61.05
2019-02-04T01:33:07.000Z,41.65
2019-02-04T01:35:40.005Z,35.92
2019-02-04T01:38:10.195Z,27.70
2019-02-04T01:40:39.505Z,30.85
2019-02-04T01:43:09.999Z,26.73
2019-02-04T01:45:38.911Z,34.38
2019-02-04T01:48:08.068Z,34.20
2019-02-04T01:50:36.942Z,35.00
2019-02-04T01:53:07.780Z,29.32
2019-02-04T01:55:36.724Z,37.10
2019-02-04T01:58:13.069Z,46.95
2019-02-04T02:00:42.158Z,42.05
2019-02-04T02:03:11.283Z,38.65
2019-02-04T02:05:40.722Z,42.93
2019-02-04T02:08:09.650Z,34.65
2019-02-04T02:10:39.166Z,46.20
2019-02-04T02:13:10.657Z,43.23
2019-02-04T02:15:40.327Z,52.43
2019-02-04T02:18:09.850Z,46.55
2019-02-04T02:20:38.723Z,49.75
2019-02-04T02:23:12.580Z,35.98
2019-02-04T02:25:42.701Z,33.83
2019-02-04T02:28:11.959Z,38.95
2019-02-04T02:30:40.950Z,38.88
2019-02-04T02:33:10.252Z,48.38
2019-02-04T02:35:40.257Z,38.20
2019-02-04T02:38:09.780Z,41.95
2019-02-04T02:40:39.695Z,46.80
2019-02-04T02:43:11.586Z,38.90
2019-02-04T02:45:39.560Z,50.52
2019-02-04T02:48:10.317Z,43.42
2019-02-04T02:50:40.970Z,52.93
2019-02-04T02:53:10.484Z,43.48
2019-02-04T02:55:39.811Z,33.15
2019-02-04T02:58:08.803Z,36.17
2019-02-04T03:00:37.701Z,36.28
2019-02-04T03:03:06.714Z,35.58
2019-02-04T03:05:35.569Z,35.30
2019-02-04T03:08:07.627Z,33.85
2019-02-04T03:10:38.512Z,45.33
2019-02-04T03:13:09.494Z,38.90
2019-02-04T03:15:38.804Z,36.63
2019-02-04T03:18:08.108Z,42.80
2019-02-04T03:20:37.136Z,48.87
2019-02-04T03:23:07.232Z,40.55
2019-02-04T03:25:41.038Z,33.50
2019-02-04T03:28:12.583Z,35.45
2019-02-04T03:30:41.930Z,40.10
2019-02-04T03:33:14.694Z,34.80
2019-02-04T03:35:45.400Z,35.20
2019-02-04T03:38:14.749Z,32.35
2019-02-04T03:40:44.036Z,40.40
2019-02-04T03:43:13.329Z,40.45
2019-02-04T03:45:44.629Z,51.53
2019-02-04T03:48:13.849Z,41.28
2019-02-04T03:50:43.967Z,43.40
2019-02-04T03:53:13.121Z,42.50
2019-02-04T03:55:42.379Z,39.15
2019-02-04T03:58:13.434Z,45.90
2019-02-04T04:00:42.606Z,42.17
2019-02-04T04:03:12.885Z,49.98
2019-02-04T04:05:42.205Z,37.85
2019-02-04T04:08:11.156Z,40.23
2019-02-04T04:10:41.767Z,52.80
2019-02-04T04:13:11.500Z,57.55
2019-02-04T04:15:41.409Z,84.87
2019-02-04T04:18:15.861Z,63.28
2019-02-04T04:20:44.992Z,63.87
2019-02-04T04:23:14.219Z,49.08
2019-02-04T04:25:44.221Z,52.73
2019-02-04T04:28:13.101Z,39.08
2019-02-04T04:30:42.036Z,43.55
2019-02-04T04:33:10.981Z,46.50
2019-02-04T04:35:40.345Z,37.38
2019-02-04T04:38:12.188Z,35.00
2019-02-04T04:40:41.517Z,38.67
2019-02-04T04:43:11.291Z,41.08
2019-02-04T04:45:41.431Z,37.08
2019-02-04T04:48:12.039Z,33.23
2019-02-04T04:50:41.536Z,30.23
2019-02-04T04:53:10.900Z,38.80
2019-02-04T04:55:40.381Z,35.38
2019-02-04T04:58:09.850Z,34.08
2019-02-04T05:00:39.674Z,31.73
2019-02-04T05:03:11.195Z,33.92
2019-02-04T05:05:41.284Z,43.45
2019-02-04T05:08:10.484Z,32.10
2019-02-04T05:10:40.048Z,31.20
2019-02-04T05:13:08.943Z,27.98
2019-02-04T05:15:37.735Z,26.37
2019-02-04T05:18:07.157Z,33.73
2019-02-04T05:20:36.414Z,34.40
2019-02-04T05:23:05.376Z,35.10
2019-02-04T05:25:35.461Z,33.55
2019-02-04T05:28:06.680Z,39.25
2019-02-04T05:30:39.071Z,36.53
2019-02-04T05:33:08.169Z,35.63
2019-02-04T05:35:39.906Z,37.88
2019-02-04T05:38:10.655Z,36.40
2019-02-04T05:40:40.017Z,35.08
2019-02-04T05:43:09.348Z,29.50
2019-02-04T05:45:38.728Z,31.37
2019-02-04T05:48:08.843Z,31.17
2019-02-04T05:50:38.354Z,29.00
2019-02-04T05:53:08.684Z,29.87
2019-02-04T05:55:37.922Z,30.40
2019-02-04T05:58:08.419Z,31.02
2019-02-04T06:00:40.475Z,30.92
2019-02-04T06:03:09.503Z,35.63
2019-02-04T06:05:38.977Z,35.15
2019-02-04T06:08:08.022Z,36.38
2019-02-04T06:10:37.859Z,28.80
2019-02-04T06:13:09.528Z,35.40
2019-02-04T06:15:38.893Z,35.35
2019-02-04T06:18:12.376Z,36.10
2019-02-04T06:23:09.454Z,34.27
2019-02-04T06:25:38.444Z,30.60
2019-02-04T06:28:07.992Z,30.68
2019-02-04T06:30:39.806Z,30.17
2019-02-04T06:33:09.157Z,31.95
2019-02-04T06:35:38.406Z,32.13
2019-02-04T06:38:08.012Z,27.27
2019-02-04T06:40:38.159Z,27.55
2019-02-04T06:43:07.250Z,32.05
2019-02-04T06:45:38.253Z,28.75
2019-02-04T06:48:08.487Z,32.80
2019-02-04T06:50:37.467Z,30.52
2019-02-04T06:53:06.887Z,32.78
2019-02-04T06:55:48.279Z,31.15
2019-02-04T06:58:17.611Z,30.85
2019-02-04T07:00:47.219Z,34.03
2019-02-04T07:03:16.413Z,30.23
2019-02-04T07:05:47.162Z,30.10
2019-02-04T07:08:16.091Z,31.05
2019-02-04T07:10:45.043Z,32.25
2019-02-04T07:13:14.111Z,30.72
2019-02-04T07:15:43.809Z,27.67
2019-02-04T07:18:12.903Z,29.32
2019-02-04T07:20:41.924Z,28.05
2019-02-04T07:23:12.819Z,30.88
2019-02-04T07:25:42.767Z,29.77
2019-02-04T07:28:18.388Z,31.20
2019-02-04T07:30:49.865Z,29.90
2019-02-04T07:33:20.064Z,30.45
2019-02-04T07:35:50.028Z,33.70
2019-02-04T07:38:19.398Z,29.55
2019-02-04T07:40:49.122Z,32.60
2019-02-04T07:43:18.585Z,30.75
2019-02-04T07:45:54.820Z,30.72
2019-02-04T07:48:23.557Z,30.88
2019-02-04T07:50:52.279Z,28.47
2019-02-04T07:53:21.113Z,29.20
2019-02-04T07:55:50.157Z,30.05
2019-02-04T07:58:18.889Z,31.62
2019-02-04T08:00:47.605Z,29.55
2019-02-04T08:03:16.447Z,27.50
2019-02-04T08:05:45.317Z,30.68
2019-02-04T08:08:14.412Z,30.57
2019-02-04T08:10:43.401Z,27.45
2019-02-04T08:13:12.472Z,29.18
2019-02-04T08:15:41.313Z,24.60
2019-02-04T08:18:10.133Z,25.27
2019-02-04T08:20:39.922Z,29.70
2019-02-04T08:23:08.684Z,28.92
2019-02-04T08:25:37.719Z,27.87
2019-02-04T08:28:06.466Z,27.30
2019-02-04T08:30:38.170Z,26.48
2019-02-04T08:33:06.835Z,32.93
2019-02-04T08:35:35.834Z,27.55
2019-02-04T08:38:04.651Z,27.62
2019-02-04T08:40:33.893Z,25.82
2019-02-04T08:43:02.641Z,28.23
2019-02-04T08:45:31.408Z,27.02
2019-02-04T08:48:00.222Z,26.07
2019-02-04T08:50:28.974Z,26.30
2019-02-04T08:52:58.024Z,28.73
2019-02-04T08:55:26.780Z,28.75
2019-02-04T08:57:55.748Z,30.62
2019-02-04T09:00:24.602Z,26.48
2019-02-04T09:02:53.316Z,28.92
2019-02-04T09:05:22.018Z,27.50
2019-02-04T09:07:50.688Z,29.98
2019-02-04T09:10:28.057Z,26.33
2019-02-04T09:12:56.730Z,28.23
2019-02-04T09:15:25.522Z,28.23
2019-02-04T09:17:54.354Z,27.27
2019-02-04T09:20:24.657Z,30.32
2019-02-04T09:22:53.360Z,27.90
2019-02-04T09:25:22.609Z,32.48
2019-02-04T09:27:51.603Z,26.77
2019-02-04T09:30:21.702Z,28.62
2019-02-04T09:32:50.445Z,28.77
2019-02-04T09:35:19.911Z,28.92
2019-02-04T09:37:48.733Z,27.35
2019-02-04T09:40:31.783Z,28.50
2019-02-04T09:43:00.569Z,25.62
2019-02-04T09:45:29.254Z,27.25
2019-02-04T09:47:58.027Z,28.25
2019-02-04T09:50:27.318Z,28.23
2019-02-04T09:52:56.827Z,23.22
2019-02-04T09:55:28.163Z,23.50
2019-02-04T09:57:56.950Z,31.65
2019-02-04T10:00:27.451Z,27.22
2019-02-04T10:02:56.241Z,23.05
2019-02-04T10:05:24.954Z,23.83
2019-02-04T10:07:53.628Z,27.10
2019-02-04T10:10:24.200Z,25.92
2019-02-04T10:12:52.928Z,28.92
2019-02-04T10:15:24.986Z,27.15
2019-02-04T10:17:53.813Z,25.30
2019-02-04T10:20:33.040Z,22.95
2019-02-04T10:22:53.064Z,25.97
2019-02-04T10:25:23.722Z,26.42
2019-02-04T10:27:52.463Z,21.73
2019-02-04T10:30:22.181Z,22.87
2019-02-04T10:32:50.833Z,23.50
2019-02-04T10:35:19.738Z,24.52
2019-02-04T10:37:49.224Z,26.33
2019-02-04T10:40:19.856Z,23.47
2019-02-04T10:42:48.656Z,23.57
2019-02-04T10:45:17.838Z,23.73
2019-02-04T10:47:46.581Z,25.37
2019-02-04T10:50:17.943Z,26.75
2019-02-04T10:52:47.109Z,22.15
2019-02-04T10:55:15.991Z,24.37
2019-02-04T10:57:45.931Z,21.68
2019-02-04T11:00:17.088Z,23.07
2019-02-04T11:02:45.951Z,24.12
2019-02-04T11:05:17.325Z,28.02
2019-02-04T11:07:46.268Z,28.30
2019-02-04T11:10:15.683Z,24.50
2019-02-04T11:12:44.520Z,19.07
2019-02-04T11:15:13.997Z,23.10
2019-02-04T11:17:42.913Z,26.80
2019-02-04T11:20:18.179Z,27.82
2019-02-04T11:22:47.043Z,22.13
2019-02-04T11:25:15.866Z,23.45
2019-02-04T11:27:44.597Z,20.52
2019-02-04T11:30:17.808Z,22.52
2019-02-04T11:32:47.808Z,22.15
2019-02-04T11:35:16.645Z,25.27
2019-02-04T11:37:45.459Z,28.73
2019-02-04T11:40:16.163Z,30.72
2019-02-04T11:42:44.959Z,23.07
2019-02-04T11:45:13.765Z,26.85
2019-02-04T11:47:42.623Z,26.60
2019-02-04T11:50:11.561Z,26.95
2019-02-04T11:52:40.281Z,24.18
2019-02-04T11:55:09.871Z,25.02
2019-02-04T11:57:38.577Z,22.10
2019-02-04T12:00:09.617Z,29.45
2019-02-04T12:02:38.847Z,28.80
2019-02-04T12:05:09.493Z,26.00
2019-02-04T12:07:38.310Z,24.02
2019-02-04T12:10:09.040Z,28.40
2019-02-04T12:12:37.882Z,22.50
2019-02-04T12:15:10.172Z,24.52
2019-02-04T12:17:39.127Z,19.98
2019-02-04T12:20:09.388Z,24.95
2019-02-04T12:22:38.174Z,22.95
2019-02-04T12:25:08.744Z,17.57
2019-02-04T12:27:37.539Z,24.05
2019-02-04T12:30:07.536Z,34.35
2019-02-04T12:32:36.573Z,26.60
2019-02-04T12:35:06.536Z,22.93
2019-02-04T12:37:35.539Z,21.55
2019-02-04T12:40:04.814Z,23.83
2019-02-04T12:42:33.613Z,20.35
2019-02-04T12:45:02.373Z,23.80
2019-02-04T12:47:31.395Z,17.62
2019-02-04T12:50:00.353Z,21.37
2019-02-04T12:52:29.174Z,18.98
2019-02-04T12:54:58.053Z,17.45
2019-02-04T12:57:26.818Z,13.40
2019-02-04T12:59:55.625Z,19.27
2019-02-04T13:02:24.608Z,13.98
2019-02-04T13:04:53.666Z,16.15
2019-02-04T13:07:22.405Z,22.22
2019-02-04T13:09:51.533Z,11.65
2019-02-04T13:12:20.322Z,17.40
2019-02-04T13:14:49.045Z,20.02
2019-02-04T13:17:18.254Z,22.55
2019-02-04T13:19:47.315Z,14.83
2019-02-04T13:22:16.079Z,25.65
2019-02-04T13:24:44.910Z,21.07
2019-02-04T13:27:13.638Z,15.35
2019-02-04T13:29:42.488Z,11.55
2019-02-04T13:32:11.549Z,13.00
2019-02-04T13:34:40.315Z,13.93
2019-02-04T13:37:09.189Z,15.20
2019-02-04T13:39:37.946Z,14.87
2019-02-04T13:42:07.006Z,15.48
2019-02-04T13:44:36.162Z,15.00
2019-02-04T13:47:05.791Z,11.22
2019-02-04T13:49:34.637Z,19.65
2019-02-04T13:52:03.402Z,14.07
2019-02-04T13:54:32.224Z,12.50
2019-02-04T13:57:03.646Z,22.07
2019-02-04T13:59:31.431Z,13.43
2019-02-04T14:02:00.386Z,18.65
2019-02-04T14:04:29.170Z,19.27
2019-02-04T14:06:57.958Z,16.27
2019-02-04T14:09:26.848Z,14.80
2019-02-04T14:11:55.594Z,16.15
2019-02-04T14:14:24.327Z,18.12
2019-02-04T14:16:53.154Z,19.73
2019-02-04T14:19:21.838Z,21.75
2019-02-04T14:21:50.660Z,13.53
2019-02-04T14:24:19.416Z,15.30
2019-02-04T14:26:48.128Z,13.80
2019-02-04T14:29:17.285Z,18.65
2019-02-04T14:31:46.198Z,12.65
2019-02-04T14:34:15.215Z,10.95
2019-02-04T14:36:43.983Z,15.55
2019-02-04T14:39:14.965Z,15.20
2019-02-04T14:41:43.960Z,14.25
2019-02-04T14:44:38.372Z,15.55
2019-02-04T14:47:37.903Z,13.53
2019-02-04T14:50:40.216Z,13.32
2019-02-04T14:53:48.933Z,17.42
2019-02-04T14:56:43.776Z,13.40
2019-02-04T14:59:39.678Z,22.58
2019-02-04T15:02:41.341Z,12.40
2019-02-04T15:05:18.252Z,14.07
2019-02-04T15:08:32.914Z,16.90
2019-02-04T15:11:48.842Z,15.65
2019-02-04T15:14:44.732Z,13.78
2019-02-04T15:18:03.795Z,12.65
2019-02-04T15:21:14.594Z,15.00
2019-02-04T15:23:51.450Z,14.55
2019-02-04T15:26:38.223Z,14.25
2019-02-04T15:29:20.830Z,16.00
2019-02-04T15:32:21.903Z,22.45
2019-02-04T15:35:11.113Z,29.80
2019-02-04T15:38:24.480Z,17.02
2019-02-04T15:41:27.672Z,22.55
2019-02-04T15:44:34.493Z,25.48
2019-02-04T15:47:48.697Z,17.12
2019-02-04T15:51:29.136Z,18.95
2019-02-04T15:53:59.973Z,17.52
2019-02-04T15:56:28.773Z,19.45
2019-02-04T15:58:57.590Z,15.53
2019-02-04T16:01:26.408Z,15.80
2019-02-04T16:03:55.257Z,19.30
2019-02-04T16:06:24.115Z,14.98
2019-02-04T16:08:52.883Z,15.23
2019-02-04T16:11:21.655Z,16.25
2019-02-04T16:13:50.448Z,13.72
2019-02-04T16:16:19.535Z,13.70
2019-02-04T16:18:48.439Z,15.38
2019-02-04T16:21:17.297Z,13.48
2019-02-04T16:23:46.272Z,15.55
2019-02-04T16:26:15.383Z,14.85
2019-02-04T16:28:44.359Z,14.55
2019-02-04T16:31:13.241Z,17.45
2019-02-04T16:33:42.006Z,14.93
2019-02-04T16:36:10.827Z,19.65
2019-02-04T16:38:39.832Z,17.00
2019-02-04T16:41:08.996Z,12.40
2019-02-04T16:43:38.154Z,16.27
2019-02-04T16:46:06.987Z,13.83
2019-02-04T16:48:35.857Z,13.03
2019-02-04T16:51:11.569Z,13.88
2019-02-04T16:53:35.189Z,21.57
2019-02-04T16:56:04.081Z,17.17
2019-02-04T16:58:32.978Z,16.30
2019-02-04T17:01:01.847Z,13.48
2019-02-04T17:03:31.289Z,15.90
2019-02-04T17:06:00.088Z,13.78
2019-02-04T17:08:29.320Z,12.80
2019-02-04T17:10:58.095Z,12.55
2019-02-04T17:13:26.882Z,11.08
2019-02-04T17:15:55.733Z,12.82
2019-02-04T17:18:24.499Z,16.93
2019-02-04T17:20:53.257Z,13.48
2019-02-04T17:23:22.852Z,14.05
2019-02-04T17:25:51.653Z,18.05
2019-02-04T17:28:20.434Z,15.03
2019-02-04T17:30:49.256Z,17.65
2019-02-04T17:33:18.311Z,19.48
2019-02-04T17:35:47.252Z,18.17
2019-02-04T17:38:16.033Z,18.92
2019-02-04T17:40:44.814Z,15.32
2019-02-04T17:43:13.688Z,18.42
2019-02-04T17:45:43.929Z,18.50
2019-02-04T17:48:12.748Z,21.33
2019-02-04T17:50:41.572Z,17.48
2019-02-04T17:53:10.521Z,14.90
2019-02-04T17:55:39.407Z,17.77
2019-02-04T17:58:08.271Z,21.40
2019-02-04T18:00:43.501Z,21.07
2019-02-04T18:03:12.329Z,23.07
2019-02-04T18:05:41.190Z,14.95
2019-02-04T18:08:10.159Z,14.93
2019-02-04T18:10:38.964Z,22.10
2019-02-04T18:13:07.778Z,19.48
2019-02-04T18:15:37.310Z,19.52
2019-02-04T18:18:06.184Z,19.92
2019-02-04T18:20:35.133Z,26.23
2019-02-04T18:23:06.346Z,21.20
2019-02-04T18:25:35.161Z,19.60
2019-02-04T18:28:04.002Z,18.73
2019-02-04T18:30:33.232Z,25.82
2019-02-04T18:33:02.015Z,24.65
2019-02-04T18:35:31.191Z,17.17
2019-02-04T18:38:00.313Z,20.37
2019-02-04T18:40:29.271Z,19.10
2019-02-04T18:42:58.473Z,22.05
2019-02-04T18:45:28.258Z,18.00
2019-02-04T18:47:57.125Z,16.35
2019-02-04T18:50:26.353Z,20.15
2019-02-04T18:52:55.174Z,18.17
2019-02-04T18:55:28.972Z,16.87
2019-02-04T18:57:57.840Z,14.47
2019-02-04T19:00:27.737Z,16.27
2019-02-04T19:02:56.563Z,15.35
2019-02-04T19:05:26.831Z,20.08
2019-02-04T19:07:55.815Z,16.55
2019-02-04T19:10:24.589Z,16.40
2019-02-04T19:12:53.458Z,13.30
2019-02-04T19:15:23.090Z,16.93
2019-02-04T19:17:53.667Z,15.23
2019-02-04T19:20:22.863Z,15.30
2019-02-04T19:22:51.755Z,14.87
2019-02-04T19:25:20.739Z,13.53
2019-02-04T19:27:49.716Z,17.70
2019-02-04T19:30:24.716Z,14.13
2019-02-04T19:32:54.057Z,13.10
2019-02-04T19:35:22.858Z,13.40
2019-02-04T19:37:51.901Z,11.25
2019-02-04T19:40:20.958Z,13.10
2019-02-04T19:42:49.735Z,14.80
2019-02-04T19:45:21.745Z,18.07
2019-02-04T19:47:50.964Z,10.35
2019-02-04T19:50:22.538Z,14.23
2019-02-04T19:52:51.651Z,11.00
2019-02-04T19:55:20.549Z,18.92
2019-02-04T19:57:50.065Z,13.53
2019-02-04T20:00:20.641Z,13.88
2019-02-04T20:02:49.886Z,15.10
2019-02-04T20:05:20.172Z,14.15
2019-02-04T20:07:49.042Z,15.80
2019-02-04T20:10:19.250Z,13.25
2019-02-04T20:12:48.863Z,13.75
2019-02-04T20:15:20.648Z,11.85
2019-02-04T20:17:51.089Z,13.18
2019-02-04T20:20:20.088Z,11.75
2019-02-04T20:22:48.959Z,10.80
2019-02-04T20:25:22.892Z,15.98
2019-02-04T20:27:52.149Z,16.67
2019-02-04T20:30:29.864Z,13.25
2019-02-04T20:33:00.163Z,11.63
2019-02-04T20:35:29.025Z,11.08
2019-02-04T20:37:58.150Z,12.88
2019-02-04T20:40:27.160Z,15.05
2019-02-04T20:42:55.963Z,10.25
2019-02-04T20:45:25.330Z,12.33
2019-02-04T20:47:54.176Z,9.55
2019-02-04T20:50:27.704Z,13.38
2019-02-04T20:52:56.572Z,11.53
2019-02-04T20:55:25.385Z,11.97
2019-02-04T20:57:54.267Z,11.97
2019-02-04T21:00:26.874Z,11.80
2019-02-04T21:02:55.615Z,13.78
2019-02-04T21:05:24.444Z,8.45
2019-02-04T21:07:53.247Z,10.63
2019-02-04T21:10:22.977Z,10.48
2019-02-04T21:12:52.026Z,14.18
2019-02-04T21:15:21.477Z,11.48
2019-02-04T21:17:50.618Z,10.10
2019-02-04T21:20:20.954Z,9.48
2019-02-04T21:22:49.869Z,12.53
2019-02-04T21:25:19.973Z,12.63
2019-02-04T21:27:49.076Z,11.78
2019-02-04T21:30:23.372Z,9.48
2019-02-04T21:32:52.313Z,16.05
2019-02-04T21:35:21.086Z,9.48
2019-02-04T21:37:52.201Z,11.15
2019-02-04T21:40:21.176Z,12.20
2019-02-04T21:42:51.216Z,8.15
2019-02-04T21:45:20.485Z,10.25
2019-02-04T21:47:49.298Z,10.80
2019-02-04T21:50:20.017Z,10.53
2019-02-04T21:52:48.883Z,10.65
2019-02-04T21:55:17.918Z,10.72
2019-02-04T21:57:46.926Z,13.18
2019-02-04T22:00:20.872Z,12.35
2019-02-04T22:02:50.915Z,12.03
2019-02-04T22:05:22.936Z,11.20
2019-02-04T22:07:51.732Z,9.73
2019-02-04T22:10:23.843Z,9.40
2019-02-04T22:12:53.000Z,11.97
2019-02-04T22:15:21.808Z,11.78
2019-02-04T22:17:51.499Z,13.05
2019-02-04T22:20:20.302Z,11.57
2019-02-04T22:22:49.140Z,12.78
2019-02-04T22:25:19.621Z,9.93
2019-02-04T22:27:49.287Z,11.25
2019-02-04T22:30:19.826Z,10.08
2019-02-04T22:32:48.689Z,10.40
2019-02-04T22:35:17.907Z,15.05
2019-02-04T22:37:47.324Z,12.03
2019-02-04T22:40:18.249Z,13.32
2019-02-04T22:42:47.020Z,12.28
2019-02-04T22:45:16.157Z,12.45
2019-02-04T22:47:44.996Z,9.88
2019-02-04T22:50:16.478Z,11.38
2019-02-04T22:52:45.257Z,11.80
2019-02-04T22:55:14.340Z,11.28
2019-02-04T22:57:43.097Z,11.08
2019-02-04T23:00:40.359Z,9.13
2019-02-04T23:03:09.141Z,11.15
2019-02-04T23:05:38.287Z,12.70
2019-02-04T23:08:07.257Z,11.12
2019-02-04T23:10:36.161Z,10.45
2019-02-04T23:13:06.998Z,8.95
2019-02-04T23:15:35.951Z,14.05
2019-02-04T23:18:04.921Z,9.00
2019-02-04T23:20:33.831Z,10.13
2019-02-04T23:23:03.398Z,11.45
2019-02-04T23:25:43.096Z,8.65
2019-02-04T23:28:04.804Z,10.53
2019-02-04T23:30:33.699Z,8.20
2019-02-04T23:33:03.067Z,10.80
2019-02-04T23:35:31.848Z,11.03
2019-02-04T23:38:00.676Z,8.90
2019-02-04T23:40:30.449Z,11.35
2019-02-04T23:42:59.217Z,10.68
2019-02-04T23:45:29.125Z,10.23
2019-02-04T23:47:58.835Z,9.30
2019-02-04T23:50:27.671Z,11.15
2019-02-04T23:52:56.547Z,9.93
2019-02-04T23:55:25.305Z,7.45
2019-02-04T23:57:54.180Z,11.63
